sensor_id;sensor_type;location;lat;lon;timestamp;P1;durP1;ratioP1;P2;durP2;ratioP2
45650;SDS011;31365;48.858;8.530;2022-07-23T00:01:59;5.32;;;4.93;;
45650;SDS011;31365;48.858;8.530;2022-07-23T00:04:29;6.20;;;5.60;;
45650;SDS011;31365;48.858;8.530;2022-07-23T00:06:57;7.57;;;5.63;;
45650;SDS011;31365;48.858;8.530;2022-07-23T00:09:26;6.63;;;5.88;;
45650;SDS011;31365;48.858;8.530;2022-07-23T00:11:57;5.90;;;5.18;;
45650;SDS011;31365;48.858;8.530;2022-07-23T00:14:26;6.53;;;5.93;;
45650;SDS011;31365;48.858;8.530;2022-07-23T00:16:54;5.90;;;5.38;;
45650;SDS011;31365;48.858;8.530;2022-07-23T00:19:22;6.30;;;5.47;;
45650;SDS011;31365;48.858;8.530;2022-07-23T00:21:53;5.97;;;5.53;;
45650;SDS011;31365;48.858;8.530;2022-07-23T00:24:21;6.05;;;5.45;;
45650;SDS011;31365;48.858;8.530;2022-07-23T00:26:49;5.93;;;5.50;;
45650;SDS011;31365;48.858;8.530;2022-07-23T00:29:18;5.97;;;5.45;;
45650;SDS011;31365;48.858;8.530;2022-07-23T00:31:46;5.13;;;4.70;;
45650;SDS011;31365;48.858;8.530;2022-07-23T00:34:14;9.65;;;5.40;;
45650;SDS011;31365;48.858;8.530;2022-07-23T00:36:43;8.05;;;4.93;;
45650;SDS011;31365;48.858;8.530;2022-07-23T00:39:13;5.43;;;4.90;;
45650;SDS011;31365;48.858;8.530;2022-07-23T00:41:42;5.05;;;4.63;;
45650;SDS011;31365;48.858;8.530;2022-07-23T00:44:14;5.15;;;4.65;;
45650;SDS011;31365;48.858;8.530;2022-07-23T00:46:47;5.05;;;4.65;;
45650;SDS011;31365;48.858;8.530;2022-07-23T00:49:20;5.40;;;4.90;;
45650;SDS011;31365;48.858;8.530;2022-07-23T00:51:50;5.40;;;4.30;;
45650;SDS011;31365;48.858;8.530;2022-07-23T00:54:22;4.82;;;4.32;;
45650;SDS011;31365;48.858;8.530;2022-07-23T00:56:54;4.85;;;4.45;;
45650;SDS011;31365;48.858;8.530;2022-07-23T00:59:23;5.32;;;4.82;;
45650;SDS011;31365;48.858;8.530;2022-07-23T01:01:51;4.82;;;4.28;;
45650;SDS011;31365;48.858;8.530;2022-07-23T01:04:21;5.53;;;5.03;;
45650;SDS011;31365;48.858;8.530;2022-07-23T01:06:50;5.90;;;4.53;;
45650;SDS011;31365;48.858;8.530;2022-07-23T01:09:20;4.65;;;4.25;;
45650;SDS011;31365;48.858;8.530;2022-07-23T01:11:49;4.30;;;4.00;;
45650;SDS011;31365;48.858;8.530;2022-07-23T01:14:19;5.25;;;4.85;;
45650;SDS011;31365;48.858;8.530;2022-07-23T01:16:48;5.22;;;4.13;;
45650;SDS011;31365;48.858;8.530;2022-07-23T01:19:17;4.47;;;4.07;;
45650;SDS011;31365;48.858;8.530;2022-07-23T01:21:47;5.47;;;5.07;;
45650;SDS011;31365;48.858;8.530;2022-07-23T01:24:19;4.90;;;4.40;;
45650;SDS011;31365;48.858;8.530;2022-07-23T01:26:58;6.35;;;4.65;;
45650;SDS011;31365;48.858;8.530;2022-07-23T01:29:26;5.00;;;4.32;;
45650;SDS011;31365;48.858;8.530;2022-07-23T01:31:57;4.35;;;4.00;;
45650;SDS011;31365;48.858;8.530;2022-07-23T01:34:26;5.13;;;4.63;;
45650;SDS011;31365;48.858;8.530;2022-07-23T01:36:54;4.65;;;4.25;;
45650;SDS011;31365;48.858;8.530;2022-07-23T01:39:24;6.85;;;4.55;;
45650;SDS011;31365;48.858;8.530;2022-07-23T01:41:53;4.30;;;4.00;;
45650;SDS011;31365;48.858;8.530;2022-07-23T01:44:23;4.68;;;4.38;;
45650;SDS011;31365;48.858;8.530;2022-07-23T01:46:52;4.70;;;4.30;;
45650;SDS011;31365;48.858;8.530;2022-07-23T01:49:20;4.45;;;4.15;;
45650;SDS011;31365;48.858;8.530;2022-07-23T01:51:54;4.90;;;4.50;;
45650;SDS011;31365;48.858;8.530;2022-07-23T01:54:41;5.00;;;4.50;;
45650;SDS011;31365;48.858;8.530;2022-07-23T01:57:10;5.35;;;4.85;;
45650;SDS011;31365;48.858;8.530;2022-07-23T01:59:38;5.25;;;4.57;;
45650;SDS011;31365;48.858;8.530;2022-07-23T02:02:08;5.20;;;4.65;;
45650;SDS011;31365;48.858;8.530;2022-07-23T02:04:37;4.72;;;4.30;;
45650;SDS011;31365;48.858;8.530;2022-07-23T02:07:05;4.43;;;4.13;;
45650;SDS011;31365;48.858;8.530;2022-07-23T02:09:34;4.50;;;4.10;;
45650;SDS011;31365;48.858;8.530;2022-07-23T02:12:05;4.55;;;4.15;;
45650;SDS011;31365;48.858;8.530;2022-07-23T02:14:33;4.43;;;4.03;;
45650;SDS011;31365;48.858;8.530;2022-07-23T02:17:04;4.38;;;4.07;;
45650;SDS011;31365;48.858;8.530;2022-07-23T02:19:34;4.60;;;4.20;;
45650;SDS011;31365;48.858;8.530;2022-07-23T02:22:02;4.60;;;4.20;;
45650;SDS011;31365;48.858;8.530;2022-07-23T02:24:31;4.70;;;4.30;;
45650;SDS011;31365;48.858;8.530;2022-07-23T02:27:00;4.60;;;4.20;;
45650;SDS011;31365;48.858;8.530;2022-07-23T02:29:29;4.47;;;4.07;;
45650;SDS011;31365;48.858;8.530;2022-07-23T02:31:58;4.15;;;3.75;;
45650;SDS011;31365;48.858;8.530;2022-07-23T02:34:27;7.28;;;3.85;;
45650;SDS011;31365;48.858;8.530;2022-07-23T02:36:55;4.05;;;3.70;;
45650;SDS011;31365;48.858;8.530;2022-07-23T02:39:26;3.72;;;3.42;;
45650;SDS011;31365;48.858;8.530;2022-07-23T02:41:55;3.95;;;3.65;;
45650;SDS011;31365;48.858;8.530;2022-07-23T02:44:24;4.45;;;4.15;;
45650;SDS011;31365;48.858;8.530;2022-07-23T02:46:54;4.72;;;4.13;;
45650;SDS011;31365;48.858;8.530;2022-07-23T02:49:23;3.60;;;3.30;;
45650;SDS011;31365;48.858;8.530;2022-07-23T02:51:51;3.92;;;3.63;;
45650;SDS011;31365;48.858;8.530;2022-07-23T02:54:20;4.15;;;3.75;;
45650;SDS011;31365;48.858;8.530;2022-07-23T02:56:50;4.50;;;3.75;;
45650;SDS011;31365;48.858;8.530;2022-07-23T02:59:19;4.68;;;3.97;;
45650;SDS011;31365;48.858;8.530;2022-07-23T03:01:47;4.80;;;4.25;;
45650;SDS011;31365;48.858;8.530;2022-07-23T03:04:19;4.20;;;3.78;;
45650;SDS011;31365;48.858;8.530;2022-07-23T03:06:47;8.63;;;4.53;;
45650;SDS011;31365;48.858;8.530;2022-07-23T03:09:16;4.35;;;3.95;;
45650;SDS011;31365;48.858;8.530;2022-07-23T03:11:44;4.10;;;3.70;;
45650;SDS011;31365;48.858;8.530;2022-07-23T03:14:12;3.90;;;3.60;;
45650;SDS011;31365;48.858;8.530;2022-07-23T03:16:42;4.32;;;4.03;;
45650;SDS011;31365;48.858;8.530;2022-07-23T03:19:11;3.50;;;3.20;;
45650;SDS011;31365;48.858;8.530;2022-07-23T03:21:41;4.00;;;3.65;;
45650;SDS011;31365;48.858;8.530;2022-07-23T03:24:11;4.20;;;3.83;;
45650;SDS011;31365;48.858;8.530;2022-07-23T03:26:39;5.35;;;3.80;;
45650;SDS011;31365;48.858;8.530;2022-07-23T03:29:08;4.22;;;3.90;;
45650;SDS011;31365;48.858;8.530;2022-07-23T03:31:37;3.90;;;3.58;;
45650;SDS011;31365;48.858;8.530;2022-07-23T03:34:07;3.88;;;3.13;;
45650;SDS011;31365;48.858;8.530;2022-07-23T03:36:35;4.32;;;3.95;;
45650;SDS011;31365;48.858;8.530;2022-07-23T03:39:05;5.53;;;3.30;;
45650;SDS011;31365;48.858;8.530;2022-07-23T03:41:40;3.72;;;3.40;;
45650;SDS011;31365;48.858;8.530;2022-07-23T03:44:09;3.75;;;3.38;;
45650;SDS011;31365;48.858;8.530;2022-07-23T03:46:38;8.00;;;3.72;;
45650;SDS011;31365;48.858;8.530;2022-07-23T03:49:06;6.00;;;3.70;;
45650;SDS011;31365;48.858;8.530;2022-07-23T03:51:35;3.83;;;3.47;;
45650;SDS011;31365;48.858;8.530;2022-07-23T03:54:04;3.70;;;3.30;;
45650;SDS011;31365;48.858;8.530;2022-07-23T03:56:33;4.68;;;3.97;;
45650;SDS011;31365;48.858;8.530;2022-07-23T03:59:02;4.03;;;3.60;;
45650;SDS011;31365;48.858;8.530;2022-07-23T04:01:31;4.78;;;3.40;;
45650;SDS011;31365;48.858;8.530;2022-07-23T04:03:59;4.47;;;3.80;;
45650;SDS011;31365;48.858;8.530;2022-07-23T04:06:28;3.92;;;3.63;;
45650;SDS011;31365;48.858;8.530;2022-07-23T04:08:59;3.90;;;3.53;;
45650;SDS011;31365;48.858;8.530;2022-07-23T04:11:31;4.55;;;3.83;;
45650;SDS011;31365;48.858;8.530;2022-07-23T04:14:00;3.72;;;3.42;;
45650;SDS011;31365;48.858;8.530;2022-07-23T04:16:29;3.83;;;3.53;;
45650;SDS011;31365;48.858;8.530;2022-07-23T04:18:58;4.97;;;3.60;;
45650;SDS011;31365;48.858;8.530;2022-07-23T04:21:32;4.57;;;3.85;;
45650;SDS011;31365;48.858;8.530;2022-07-23T04:24:00;5.80;;;3.83;;
45650;SDS011;31365;48.858;8.530;2022-07-23T04:26:31;11.50;;;4.25;;
45650;SDS011;31365;48.858;8.530;2022-07-23T04:28:59;5.78;;;3.90;;
45650;SDS011;31365;48.858;8.530;2022-07-23T04:31:28;3.55;;;3.25;;
45650;SDS011;31365;48.858;8.530;2022-07-23T04:34:02;5.07;;;3.88;;
45650;SDS011;31365;48.858;8.530;2022-07-23T04:36:32;5.20;;;3.55;;
45650;SDS011;31365;48.858;8.530;2022-07-23T04:39:00;4.38;;;3.97;;
45650;SDS011;31365;48.858;8.530;2022-07-23T04:41:31;3.78;;;3.47;;
45650;SDS011;31365;48.858;8.530;2022-07-23T04:44:00;3.75;;;3.38;;
45650;SDS011;31365;48.858;8.530;2022-07-23T04:46:29;4.70;;;4.00;;
45650;SDS011;31365;48.858;8.530;2022-07-23T04:49:00;4.78;;;3.60;;
45650;SDS011;31365;48.858;8.530;2022-07-23T04:51:29;3.75;;;3.45;;
45650;SDS011;31365;48.858;8.530;2022-07-23T04:53:57;4.30;;;3.90;;
45650;SDS011;31365;48.858;8.530;2022-07-23T04:56:26;5.45;;;4.18;;
45650;SDS011;31365;48.858;8.530;2022-07-23T04:58:56;5.20;;;4.18;;
45650;SDS011;31365;48.858;8.530;2022-07-23T05:01:25;4.40;;;4.00;;
45650;SDS011;31365;48.858;8.530;2022-07-23T05:03:53;4.85;;;4.10;;
45650;SDS011;31365;48.858;8.530;2022-07-23T05:06:25;3.88;;;3.58;;
45650;SDS011;31365;48.858;8.530;2022-07-23T05:08:54;4.93;;;4.20;;
45650;SDS011;31365;48.858;8.530;2022-07-23T05:11:23;4.85;;;4.40;;
45650;SDS011;31365;48.858;8.530;2022-07-23T05:13:53;4.07;;;3.72;;
45650;SDS011;31365;48.858;8.530;2022-07-23T05:16:23;5.93;;;4.05;;
45650;SDS011;31365;48.858;8.530;2022-07-23T05:18:57;7.65;;;4.45;;
45650;SDS011;31365;48.858;8.530;2022-07-23T05:21:25;7.03;;;4.30;;
45650;SDS011;31365;48.858;8.530;2022-07-23T05:23:54;4.32;;;3.92;;
45650;SDS011;31365;48.858;8.530;2022-07-23T05:26:22;5.13;;;4.63;;
45650;SDS011;31365;48.858;8.530;2022-07-23T05:28:51;5.35;;;3.88;;
45650;SDS011;31365;48.858;8.530;2022-07-23T05:31:21;6.05;;;4.78;;
45650;SDS011;31365;48.858;8.530;2022-07-23T05:33:50;5.15;;;4.13;;
45650;SDS011;31365;48.858;8.530;2022-07-23T05:36:19;4.43;;;4.03;;
45650;SDS011;31365;48.858;8.530;2022-07-23T05:38:53;6.18;;;4.63;;
45650;SDS011;31365;48.858;8.530;2022-07-23T05:41:22;7.07;;;4.47;;
45650;SDS011;31365;48.858;8.530;2022-07-23T05:43:50;5.20;;;4.80;;
45650;SDS011;31365;48.858;8.530;2022-07-23T05:46:19;5.55;;;4.38;;
45650;SDS011;31365;48.858;8.530;2022-07-23T05:48:53;4.45;;;4.15;;
45650;SDS011;31365;48.858;8.530;2022-07-23T05:51:42;5.10;;;4.70;;
45650;SDS011;31365;48.858;8.530;2022-07-23T05:54:13;5.05;;;4.57;;
45650;SDS011;31365;48.858;8.530;2022-07-23T05:56:42;5.75;;;4.95;;
45650;SDS011;31365;48.858;8.530;2022-07-23T05:59:11;5.05;;;4.65;;
45650;SDS011;31365;48.858;8.530;2022-07-23T06:01:41;5.20;;;4.75;;
45650;SDS011;31365;48.858;8.530;2022-07-23T06:04:12;6.13;;;5.63;;
45650;SDS011;31365;48.858;8.530;2022-07-23T06:06:48;5.85;;;5.25;;
45650;SDS011;31365;48.858;8.530;2022-07-23T06:09:17;9.55;;;5.75;;
45650;SDS011;31365;48.858;8.530;2022-07-23T06:11:46;5.63;;;5.13;;
45650;SDS011;31365;48.858;8.530;2022-07-23T06:14:14;6.40;;;5.80;;
45650;SDS011;31365;48.858;8.530;2022-07-23T06:16:49;6.18;;;5.65;;
45650;SDS011;31365;48.858;8.530;2022-07-23T06:19:19;6.70;;;5.28;;
45650;SDS011;31365;48.858;8.530;2022-07-23T06:21:48;8.75;;;6.40;;
45650;SDS011;31365;48.858;8.530;2022-07-23T06:24:17;10.75;;;7.70;;
45650;SDS011;31365;48.858;8.530;2022-07-23T06:26:45;13.70;;;8.68;;
45650;SDS011;31365;48.858;8.530;2022-07-23T06:29:14;7.85;;;7.05;;
45650;SDS011;31365;48.858;8.530;2022-07-23T06:31:42;8.10;;;6.55;;
45650;SDS011;31365;48.858;8.530;2022-07-23T06:34:13;9.65;;;6.75;;
45650;SDS011;31365;48.858;8.530;2022-07-23T06:36:43;6.85;;;6.13;;
45650;SDS011;31365;48.858;8.530;2022-07-23T06:39:11;9.90;;;6.50;;
45650;SDS011;31365;48.858;8.530;2022-07-23T06:41:44;7.00;;;6.32;;
45650;SDS011;31365;48.858;8.530;2022-07-23T06:44:17;6.55;;;5.82;;
45650;SDS011;31365;48.858;8.530;2022-07-23T06:46:47;9.32;;;6.75;;
45650;SDS011;31365;48.858;8.530;2022-07-23T06:49:16;7.45;;;6.75;;
45650;SDS011;31365;48.858;8.530;2022-07-23T06:51:46;7.65;;;6.43;;
45650;SDS011;31365;48.858;8.530;2022-07-23T06:54:15;7.28;;;6.03;;
45650;SDS011;31365;48.858;8.530;2022-07-23T06:56:44;6.65;;;5.95;;
45650;SDS011;31365;48.858;8.530;2022-07-23T06:59:12;8.63;;;5.75;;
45650;SDS011;31365;48.858;8.530;2022-07-23T07:01:42;5.80;;;5.30;;
45650;SDS011;31365;48.858;8.530;2022-07-23T07:04:10;7.90;;;5.78;;
45650;SDS011;31365;48.858;8.530;2022-07-23T07:06:39;6.40;;;5.85;;
45650;SDS011;31365;48.858;8.530;2022-07-23T07:09:09;6.70;;;6.10;;
45650;SDS011;31365;48.858;8.530;2022-07-23T07:11:37;7.85;;;6.22;;
45650;SDS011;31365;48.858;8.530;2022-07-23T07:14:06;5.70;;;5.20;;
45650;SDS011;31365;48.858;8.530;2022-07-23T07:16:35;6.18;;;5.63;;
45650;SDS011;31365;48.858;8.530;2022-07-23T07:19:03;6.60;;;6.07;;
45650;SDS011;31365;48.858;8.530;2022-07-23T07:21:32;7.68;;;6.13;;
45650;SDS011;31365;48.858;8.530;2022-07-23T07:24:00;6.32;;;5.72;;
45650;SDS011;31365;48.858;8.530;2022-07-23T07:26:30;6.53;;;6.00;;
45650;SDS011;31365;48.858;8.530;2022-07-23T07:28:59;5.78;;;5.13;;
45650;SDS011;31365;48.858;8.530;2022-07-23T07:31:28;5.80;;;5.30;;
45650;SDS011;31365;48.858;8.530;2022-07-23T07:33:56;6.07;;;5.50;;
45650;SDS011;31365;48.858;8.530;2022-07-23T07:36:25;5.63;;;4.82;;
45650;SDS011;31365;48.858;8.530;2022-07-23T07:38:54;5.63;;;5.10;;
45650;SDS011;31365;48.858;8.530;2022-07-23T07:41:22;6.40;;;5.47;;
45650;SDS011;31365;48.858;8.530;2022-07-23T07:43:53;6.60;;;6.00;;
45650;SDS011;31365;48.858;8.530;2022-07-23T07:46:22;6.40;;;5.80;;
45650;SDS011;31365;48.858;8.530;2022-07-23T07:48:54;6.18;;;5.57;;
45650;SDS011;31365;48.858;8.530;2022-07-23T07:51:24;5.53;;;5.13;;
45650;SDS011;31365;48.858;8.530;2022-07-23T07:53:53;7.28;;;6.68;;
45650;SDS011;31365;48.858;8.530;2022-07-23T07:56:21;5.70;;;5.20;;
45650;SDS011;31365;48.858;8.530;2022-07-23T07:58:51;6.35;;;5.47;;
45650;SDS011;31365;48.858;8.530;2022-07-23T08:01:21;6.50;;;5.85;;
45650;SDS011;31365;48.858;8.530;2022-07-23T08:03:51;6.45;;;5.78;;
45650;SDS011;31365;48.858;8.530;2022-07-23T08:06:19;6.45;;;5.90;;
45650;SDS011;31365;48.858;8.530;2022-07-23T08:08:47;6.82;;;6.20;;
45650;SDS011;31365;48.858;8.530;2022-07-23T08:11:16;6.72;;;6.13;;
45650;SDS011;31365;48.858;8.530;2022-07-23T08:13:44;5.60;;;5.13;;
45650;SDS011;31365;48.858;8.530;2022-07-23T08:16:14;6.15;;;5.65;;
45650;SDS011;31365;48.858;8.530;2022-07-23T08:18:42;6.72;;;5.75;;
45650;SDS011;31365;48.858;8.530;2022-07-23T08:21:11;6.40;;;5.90;;
45650;SDS011;31365;48.858;8.530;2022-07-23T08:23:39;7.07;;;5.90;;
45650;SDS011;31365;48.858;8.530;2022-07-23T08:26:08;6.63;;;6.05;;
45650;SDS011;31365;48.858;8.530;2022-07-23T08:28:36;6.80;;;6.07;;
45650;SDS011;31365;48.858;8.530;2022-07-23T08:31:04;6.47;;;5.43;;
45650;SDS011;31365;48.858;8.530;2022-07-23T08:33:34;7.55;;;6.18;;
45650;SDS011;31365;48.858;8.530;2022-07-23T08:36:03;7.80;;;6.30;;
45650;SDS011;31365;48.858;8.530;2022-07-23T08:38:33;8.63;;;6.60;;
45650;SDS011;31365;48.858;8.530;2022-07-23T08:41:02;7.55;;;6.90;;
45650;SDS011;31365;48.858;8.530;2022-07-23T08:43:32;7.40;;;6.70;;
45650;SDS011;31365;48.858;8.530;2022-07-23T08:46:02;7.82;;;7.10;;
45650;SDS011;31365;48.858;8.530;2022-07-23T08:48:32;9.30;;;7.28;;
45650;SDS011;31365;48.858;8.530;2022-07-23T08:51:05;8.13;;;6.28;;
45650;SDS011;31365;48.858;8.530;2022-07-23T08:53:36;7.75;;;6.30;;
45650;SDS011;31365;48.858;8.530;2022-07-23T08:56:05;7.30;;;6.20;;
45650;SDS011;31365;48.858;8.530;2022-07-23T08:58:35;11.48;;;6.43;;
45650;SDS011;31365;48.858;8.530;2022-07-23T09:01:04;6.72;;;5.90;;
45650;SDS011;31365;48.858;8.530;2022-07-23T09:03:33;7.00;;;5.55;;
45650;SDS011;31365;48.858;8.530;2022-07-23T09:06:06;8.05;;;5.82;;
45650;SDS011;31365;48.858;8.530;2022-07-23T09:08:35;8.20;;;5.85;;
45650;SDS011;31365;48.858;8.530;2022-07-23T09:11:05;6.45;;;5.82;;
45650;SDS011;31365;48.858;8.530;2022-07-23T09:13:37;9.00;;;6.40;;
45650;SDS011;31365;48.858;8.530;2022-07-23T09:16:09;6.43;;;5.93;;
45650;SDS011;31365;48.858;8.530;2022-07-23T09:18:43;6.50;;;5.30;;
45650;SDS011;31365;48.858;8.530;2022-07-23T09:21:16;6.18;;;5.60;;
45650;SDS011;31365;48.858;8.530;2022-07-23T09:23:49;12.07;;;7.32;;
45650;SDS011;31365;48.858;8.530;2022-07-23T09:26:26;6.40;;;5.70;;
45650;SDS011;31365;48.858;8.530;2022-07-23T09:29:05;7.75;;;5.88;;
45650;SDS011;31365;48.858;8.530;2022-07-23T09:31:44;8.40;;;5.57;;
45650;SDS011;31365;48.858;8.530;2022-07-23T09:34:19;5.72;;;4.85;;
45650;SDS011;31365;48.858;8.530;2022-07-23T09:36:50;6.88;;;4.82;;
45650;SDS011;31365;48.858;8.530;2022-07-23T09:39:24;5.88;;;5.38;;
45650;SDS011;31365;48.858;8.530;2022-07-23T09:41:55;8.02;;;5.28;;
45650;SDS011;31365;48.858;8.530;2022-07-23T09:44:25;8.77;;;5.30;;
45650;SDS011;31365;48.858;8.530;2022-07-23T09:46:57;5.93;;;4.60;;
45650;SDS011;31365;48.858;8.530;2022-07-23T09:49:29;4.68;;;4.28;;
45650;SDS011;31365;48.858;8.530;2022-07-23T09:51:58;5.07;;;4.57;;
45650;SDS011;31365;48.858;8.530;2022-07-23T09:54:29;7.57;;;5.32;;
45650;SDS011;31365;48.858;8.530;2022-07-23T09:57:03;5.10;;;4.55;;
45650;SDS011;31365;48.858;8.530;2022-07-23T09:59:36;4.57;;;4.18;;
45650;SDS011;31365;48.858;8.530;2022-07-23T10:02:07;5.00;;;4.50;;
45650;SDS011;31365;48.858;8.530;2022-07-23T10:05:04;5.07;;;4.65;;
45650;SDS011;31365;48.858;8.530;2022-07-23T10:07:55;7.82;;;5.25;;
45650;SDS011;31365;48.858;8.530;2022-07-23T10:10:47;4.35;;;4.05;;
45650;SDS011;31365;48.858;8.530;2022-07-23T10:13:39;5.10;;;4.70;;
45650;SDS011;31365;48.858;8.530;2022-07-23T10:16:40;4.68;;;4.20;;
45650;SDS011;31365;48.858;8.530;2022-07-23T10:19:09;6.28;;;5.07;;
45650;SDS011;31365;48.858;8.530;2022-07-23T10:21:40;23.27;;;8.57;;
45650;SDS011;31365;48.858;8.530;2022-07-23T10:24:16;7.75;;;4.30;;
45650;SDS011;31365;48.858;8.530;2022-07-23T10:27:00;4.57;;;4.18;;
45650;SDS011;31365;48.858;8.530;2022-07-23T10:29:49;5.22;;;4.72;;
45650;SDS011;31365;48.858;8.530;2022-07-23T10:32:26;4.47;;;4.10;;
45650;SDS011;31365;48.858;8.530;2022-07-23T10:35:10;4.50;;;4.10;;
45650;SDS011;31365;48.858;8.530;2022-07-23T10:38:00;6.75;;;4.72;;
45650;SDS011;31365;48.858;8.530;2022-07-23T10:40:37;4.85;;;4.35;;
45650;SDS011;31365;48.858;8.530;2022-07-23T10:43:22;3.97;;;3.72;;
45650;SDS011;31365;48.858;8.530;2022-07-23T10:45:51;4.57;;;4.18;;
45650;SDS011;31365;48.858;8.530;2022-07-23T10:48:22;4.85;;;4.38;;
45650;SDS011;31365;48.858;8.530;2022-07-23T10:51:05;4.75;;;4.32;;
45650;SDS011;31365;48.858;8.530;2022-07-23T10:53:53;4.07;;;3.78;;
45650;SDS011;31365;48.858;8.530;2022-07-23T11:02:50;4.22;;;3.92;;
45650;SDS011;31365;48.858;8.530;2022-07-23T11:05:21;4.97;;;4.47;;
45650;SDS011;31365;48.858;8.530;2022-07-23T11:08:12;4.55;;;4.13;;
45650;SDS011;31365;48.858;8.530;2022-07-23T11:10:46;5.18;;;4.78;;
45650;SDS011;31365;48.858;8.530;2022-07-23T11:13:26;4.80;;;4.40;;
45650;SDS011;31365;48.858;8.530;2022-07-23T11:16:15;5.40;;;4.80;;
45650;SDS011;31365;48.858;8.530;2022-07-23T11:19:05;4.82;;;4.43;;
45650;SDS011;31365;48.858;8.530;2022-07-23T11:21:42;4.32;;;3.95;;
45650;SDS011;31365;48.858;8.530;2022-07-23T11:24:18;4.60;;;4.03;;
45650;SDS011;31365;48.858;8.530;2022-07-23T11:26:52;5.60;;;5.10;;
45650;SDS011;31365;48.858;8.530;2022-07-23T11:29:43;5.55;;;4.75;;
45650;SDS011;31365;48.858;8.530;2022-07-23T11:32:30;7.45;;;4.55;;
45650;SDS011;31365;48.858;8.530;2022-07-23T11:35:24;4.85;;;4.43;;
45650;SDS011;31365;48.858;8.530;2022-07-23T11:38:02;4.82;;;4.43;;
45650;SDS011;31365;48.858;8.530;2022-07-23T11:40:34;4.88;;;4.47;;
45650;SDS011;31365;48.858;8.530;2022-07-23T11:43:04;5.30;;;4.88;;
45650;SDS011;31365;48.858;8.530;2022-07-23T11:45:35;5.65;;;4.68;;
45650;SDS011;31365;48.858;8.530;2022-07-23T11:48:07;5.32;;;4.30;;
45650;SDS011;31365;48.858;8.530;2022-07-23T11:50:43;4.93;;;4.53;;
45650;SDS011;31365;48.858;8.530;2022-07-23T11:53:11;4.53;;;4.13;;
45650;SDS011;31365;48.858;8.530;2022-07-23T11:55:40;4.60;;;4.28;;
45650;SDS011;31365;48.858;8.530;2022-07-23T11:58:10;4.57;;;4.22;;
45650;SDS011;31365;48.858;8.530;2022-07-23T12:00:40;4.28;;;3.97;;
45650;SDS011;31365;48.858;8.530;2022-07-23T12:03:09;4.57;;;4.18;;
45650;SDS011;31365;48.858;8.530;2022-07-23T12:05:38;5.13;;;4.18;;
45650;SDS011;31365;48.858;8.530;2022-07-23T12:08:07;4.57;;;4.10;;
45650;SDS011;31365;48.858;8.530;2022-07-23T12:10:39;4.72;;;4.22;;
45650;SDS011;31365;48.858;8.530;2022-07-23T12:13:11;6.18;;;4.50;;
45650;SDS011;31365;48.858;8.530;2022-07-23T12:15:47;5.63;;;4.25;;
45650;SDS011;31365;48.858;8.530;2022-07-23T12:18:19;4.38;;;3.97;;
45650;SDS011;31365;48.858;8.530;2022-07-23T12:20:50;4.25;;;3.95;;
45650;SDS011;31365;48.858;8.530;2022-07-23T12:23:23;4.18;;;3.88;;
45650;SDS011;31365;48.858;8.530;2022-07-23T12:25:53;4.68;;;4.38;;
45650;SDS011;31365;48.858;8.530;2022-07-23T12:28:28;3.90;;;3.58;;
45650;SDS011;31365;48.858;8.530;2022-07-23T12:30:59;4.93;;;4.53;;
45650;SDS011;31365;48.858;8.530;2022-07-23T12:33:29;4.47;;;4.07;;
45650;SDS011;31365;48.858;8.530;2022-07-23T12:35:59;5.20;;;4.40;;
45650;SDS011;31365;48.858;8.530;2022-07-23T12:38:36;4.30;;;4.00;;
45650;SDS011;31365;48.858;8.530;2022-07-23T12:41:07;5.80;;;4.53;;
45650;SDS011;31365;48.858;8.530;2022-07-23T12:43:38;4.50;;;4.20;;
45650;SDS011;31365;48.858;8.530;2022-07-23T12:46:10;4.30;;;4.00;;
45650;SDS011;31365;48.858;8.530;2022-07-23T12:48:49;4.45;;;4.05;;
45650;SDS011;31365;48.858;8.530;2022-07-23T12:51:21;4.15;;;3.85;;
45650;SDS011;31365;48.858;8.530;2022-07-23T12:53:54;4.47;;;3.85;;
45650;SDS011;31365;48.858;8.530;2022-07-23T12:56:28;5.65;;;3.88;;
45650;SDS011;31365;48.858;8.530;2022-07-23T12:59:04;4.43;;;4.10;;
45650;SDS011;31365;48.858;8.530;2022-07-23T13:01:37;6.40;;;4.38;;
45650;SDS011;31365;48.858;8.530;2022-07-23T13:04:09;6.07;;;3.95;;
45650;SDS011;31365;48.858;8.530;2022-07-23T13:06:41;4.20;;;3.70;;
45650;SDS011;31365;48.858;8.530;2022-07-23T13:09:14;3.88;;;3.55;;
45650;SDS011;31365;48.858;8.530;2022-07-23T13:11:46;4.43;;;3.97;;
45650;SDS011;31365;48.858;8.530;2022-07-23T13:14:18;4.55;;;4.15;;
45650;SDS011;31365;48.858;8.530;2022-07-23T13:16:47;7.63;;;4.55;;
45650;SDS011;31365;48.858;8.530;2022-07-23T13:19:18;3.92;;;3.63;;
45650;SDS011;31365;48.858;8.530;2022-07-23T13:21:50;4.38;;;3.92;;
45650;SDS011;31365;48.858;8.530;2022-07-23T13:24:20;4.70;;;4.40;;
45650;SDS011;31365;48.858;8.530;2022-07-23T13:26:48;4.93;;;4.43;;
45650;SDS011;31365;48.858;8.530;2022-07-23T13:29:19;4.10;;;3.80;;
45650;SDS011;31365;48.858;8.530;2022-07-23T13:31:48;4.38;;;3.97;;
45650;SDS011;31365;48.858;8.530;2022-07-23T13:34:17;4.82;;;4.45;;
45650;SDS011;31365;48.858;8.530;2022-07-23T13:36:45;4.93;;;4.07;;
45650;SDS011;31365;48.858;8.530;2022-07-23T13:39:14;5.55;;;4.38;;
45650;SDS011;31365;48.858;8.530;2022-07-23T13:41:43;4.50;;;4.10;;
45650;SDS011;31365;48.858;8.530;2022-07-23T13:44:16;4.32;;;4.03;;
45650;SDS011;31365;48.858;8.530;2022-07-23T13:46:49;5.63;;;4.07;;
45650;SDS011;31365;48.858;8.530;2022-07-23T13:49:18;4.47;;;4.18;;
45650;SDS011;31365;48.858;8.530;2022-07-23T13:51:47;4.43;;;4.03;;
45650;SDS011;31365;48.858;8.530;2022-07-23T13:54:16;4.15;;;3.85;;
45650;SDS011;31365;48.858;8.530;2022-07-23T13:56:45;4.22;;;3.88;;
45650;SDS011;31365;48.858;8.530;2022-07-23T13:59:14;4.30;;;3.90;;
45650;SDS011;31365;48.858;8.530;2022-07-23T14:01:43;4.10;;;3.70;;
45650;SDS011;31365;48.858;8.530;2022-07-23T14:04:33;4.07;;;3.78;;
45650;SDS011;31365;48.858;8.530;2022-07-23T14:07:02;4.00;;;3.70;;
45650;SDS011;31365;48.858;8.530;2022-07-23T14:09:32;4.15;;;3.85;;
45650;SDS011;31365;48.858;8.530;2022-07-23T14:12:01;4.38;;;4.00;;
45650;SDS011;31365;48.858;8.530;2022-07-23T14:14:30;4.57;;;4.28;;
45650;SDS011;31365;48.858;8.530;2022-07-23T14:17:02;4.00;;;3.70;;
45650;SDS011;31365;48.858;8.530;2022-07-23T14:19:38;4.03;;;3.78;;
45650;SDS011;31365;48.858;8.530;2022-07-23T14:22:07;4.20;;;3.90;;
45650;SDS011;31365;48.858;8.530;2022-07-23T14:24:35;4.43;;;4.13;;
45650;SDS011;31365;48.858;8.530;2022-07-23T14:27:04;4.65;;;4.13;;
45650;SDS011;31365;48.858;8.530;2022-07-23T14:29:33;5.45;;;4.10;;
45650;SDS011;31365;48.858;8.530;2022-07-23T14:32:03;5.00;;;4.60;;
45650;SDS011;31365;48.858;8.530;2022-07-23T14:34:32;5.57;;;4.40;;
45650;SDS011;31365;48.858;8.530;2022-07-23T14:37:05;4.22;;;3.88;;
45650;SDS011;31365;48.858;8.530;2022-07-23T14:39:33;4.22;;;3.90;;
45650;SDS011;31365;48.858;8.530;2022-07-23T14:42:03;5.05;;;4.65;;
45650;SDS011;31365;48.858;8.530;2022-07-23T14:44:32;5.15;;;4.38;;
45650;SDS011;31365;48.858;8.530;2022-07-23T14:47:02;4.60;;;4.20;;
45650;SDS011;31365;48.858;8.530;2022-07-23T14:49:35;5.20;;;4.32;;
45650;SDS011;31365;48.858;8.530;2022-07-23T14:52:05;4.57;;;4.18;;
45650;SDS011;31365;48.858;8.530;2022-07-23T14:54:35;4.18;;;3.88;;
45650;SDS011;31365;48.858;8.530;2022-07-23T14:57:04;5.10;;;4.10;;
45650;SDS011;31365;48.858;8.530;2022-07-23T14:59:37;4.25;;;3.95;;
45650;SDS011;31365;48.858;8.530;2022-07-23T15:02:06;4.30;;;3.97;;
45650;SDS011;31365;48.858;8.530;2022-07-23T15:04:35;4.35;;;3.95;;
45650;SDS011;31365;48.858;8.530;2022-07-23T15:07:05;4.70;;;4.13;;
45650;SDS011;31365;48.858;8.530;2022-07-23T15:09:35;4.20;;;3.90;;
45650;SDS011;31365;48.858;8.530;2022-07-23T15:12:04;4.75;;;4.28;;
45650;SDS011;31365;48.858;8.530;2022-07-23T15:14:38;6.47;;;4.25;;
45650;SDS011;31365;48.858;8.530;2022-07-23T15:17:07;4.93;;;4.32;;
45650;SDS011;31365;48.858;8.530;2022-07-23T15:19:40;5.15;;;4.55;;